Time;durP1;ratioP1;P1;durP2;ratioP2;P2;SDS_P1;SDS_P2;PMS_P1;PMS_P2;Temp;Humidity;BMP_temperature;BMP_pressure;BME280_temperature;BME280_humidity;BME280_pressure;Samples;Min_cycle;Max_cycle;Signal;HPM_P1;HPM_P2
2023/02/06 00:00:52;;;;;;;;;;;8.20;76.60;;;6.75;60.97;103111.91;5029531;28;19941;-78
2023/02/06 00:03:19;;;;;;;;;;;8.10;76.60;;;6.77;60.64;103111.75;5029571;28;19964;-78
2023/02/06 00:05:54;;;;;;;;;;;8.10;76.80;;;6.74;60.69;103119.97;5029699;28;19929;-78
2023/02/06 00:08:21;;;;;;;;;;;8.10;76.60;;;6.71;60.72;103108.63;5009027;28;20305;-78
2023/02/06 00:10:49;;;;;;;;;;;8.10;76.60;;;6.72;60.67;103114.78;5029557;28;19929;-79
2023/02/06 00:13:16;;;;;;;;;;;8.10;76.60;;;6.70;60.64;103112.25;5022673;28;19936;-79
2023/02/06 00:15:43;;;;;;;;;;;8.10;76.30;;;6.67;60.40;103106.34;5029040;28;19929;-79
2023/02/06 00:18:10;;;;;;;;;;;8.10;76.20;;;6.61;59.98;103107.66;5027858;28;19936;-79
2023/02/06 00:20:38;;;;;;;;;;;8.00;76.00;;;6.60;60.16;103111.28;5026943;28;19983;-79
2023/02/06 00:23:05;;;;;;;;;;;8.00;75.90;;;6.57;59.89;103095.59;5027186;28;19925;-79
2023/02/06 00:25:32;;;;;;;;;;;8.00;76.00;;;6.59;60.15;103093.69;5029133;28;20301;-79
2023/02/06 00:28:00;;;;;;;;;;;8.00;75.80;;;6.59;60.15;103098.16;5019599;28;20368;-79
2023/02/06 00:30:27;;;;;;;;;;;8.00;75.80;;;6.57;60.28;103087.66;5025953;28;20023;-79
2023/02/06 00:32:54;;;;;;;;;;;8.00;75.70;;;6.57;59.54;103097.41;4999894;28;19929;-79
2023/02/06 00:35:21;;;;;;;;;;;8.00;75.50;;;6.53;59.76;103094.16;5029807;28;19939;-79
2023/02/06 00:37:48;;;;;;;;;;;8.00;75.40;;;6.53;59.52;103095.97;5009076;28;19936;-79
2023/02/06 00:40:15;;;;;;;;;;;7.90;75.20;;;6.47;59.71;103089.34;5005009;28;19925;-79
2023/02/06 00:42:42;;;;;;;;;;;7.90;75.50;;;6.48;59.79;103090.19;5029644;28;20411;-79
2023/02/06 00:45:10;;;;;;;;;;;7.90;75.40;;;6.46;59.53;103077.06;5017817;28;19936;-79
2023/02/06 00:47:37;;;;;;;;;;;7.90;75.40;;;6.44;60.01;103086.91;5010401;28;20305;-79
2023/02/06 00:50:05;;;;;;;;;;;7.80;75.30;;;6.43;59.83;103082.59;5032642;28;19936;-79
2023/02/06 00:52:32;;;;;;;;;;;7.80;75.40;;;6.41;59.73;103074.75;5024441;28;19936;-79
2023/02/06 00:54:59;;;;;;;;;;;7.90;75.40;;;6.41;59.90;103076.56;5023843;28;19929;-79
2023/02/06 00:57:26;;;;;;;;;;;7.90;75.50;;;6.40;59.95;103082.84;4999370;28;19929;-79
2023/02/06 00:59:53;;;;;;;;;;;7.80;75.60;;;6.42;60.07;103086.22;5024844;28;19936;-79
2023/02/06 01:02:21;;;;;;;;;;;7.80;75.70;;;6.45;59.78;103080.69;5032905;28;20325;-79
2023/02/06 01:04:48;;;;;;;;;;;7.80;75.80;;;6.45;60.27;103080.69;5032982;28;20286;-79
2023/02/06 01:07:15;;;;;;;;;;;7.80;75.80;;;6.43;60.04;103083.44;5029814;28;19933;-79
2023/02/06 01:09:42;;;;;;;;;;;7.80;75.80;;;6.42;60.08;103079.09;5013814;28;19944;-79
2023/02/06 01:12:09;;;;;;;;;;;7.80;75.70;;;6.41;60.21;103074.75;5027025;28;19937;-79
2023/02/06 01:14:36;;;;;;;;;;;7.80;75.70;;;6.41;59.91;103080.06;5011695;28;19936;-79
2023/02/06 01:17:03;;;;;;;;;;;7.80;75.60;;;6.40;59.98;103077.53;5013581;28;19928;-79
2023/02/06 01:19:31;;;;;;;;;;;7.80;75.50;;;6.36;59.63;103078.75;5029746;28;20271;-79
2023/02/06 01:21:58;;;;;;;;;;;7.80;75.30;;;6.37;59.42;103080.41;4999991;28;19929;-79
2023/02/06 01:24:25;;;;;;;;;;;7.80;75.20;;;6.36;59.34;103082.22;5013967;28;20396;-79
2023/02/06 01:26:52;;;;;;;;;;;8.00;75.10;;;6.33;59.47;103081.63;5022466;28;19942;-79
2023/02/06 01:29:19;;;;;;;;;;;7.70;75.00;;;6.31;59.03;103088.84;5014692;28;19932;-79
2023/02/06 01:31:46;;;;;;;;;;;7.70;75.00;;;6.27;59.12;103103.28;5029482;28;19929;-79
2023/02/06 01:34:13;;;;;;;;;;;7.90;75.00;;;6.25;58.84;103102.59;5026840;28;20305;-79
2023/02/06 01:36:41;;;;;;;;;;;7.60;74.60;;;6.21;58.78;103094.00;5009328;28;19947;-79
2023/02/06 01:39:09;;;;;;;;;;;7.60;74.60;;;6.24;59.05;103099.06;5024555;28;19936;-79
2023/02/06 01:41:36;;;;;;;;;;;7.60;74.40;;;6.20;58.85;103089.69;5030691;28;19929;-79
2023/02/06 01:44:10;;;;;;;;;;;7.60;74.40;;;6.17;58.58;103096.06;5012155;28;19934;-79
2023/02/06 01:46:37;;;;;;;;;;;7.60;74.40;;;6.16;58.85;103098.81;5013741;28;19960;-79
2023/02/06 01:49:05;;;;;;;;;;;7.60;74.40;;;6.17;58.79;103098.69;5031228;28;19943;-79
2023/02/06 01:51:32;;;;;;;;;;;7.60;74.30;;;6.16;58.62;103085.56;5013832;28;19929;-79
2023/02/06 01:54:03;;;;;;;;;;;7.60;74.50;;;6.16;58.96;103091.72;5010611;28;20336;-79
2023/02/06 01:56:32;;;;;;;;;;;7.60;74.60;;;6.15;58.96;103092.69;5029380;28;19936;-79
2023/02/06 01:59:04;;;;;;;;;;;7.50;74.50;;;6.13;58.75;103089.28;5012176;28;20020;-79
2023/02/06 02:01:31;;;;;;;;;;;7.50;74.50;;;6.16;58.77;103094.38;5020524;28;19938;-79
2023/02/06 02:04:02;;;;;;;;;;;7.50;74.80;;;6.16;58.87;103097.00;5028158;28;19931;-79
2023/02/06 02:06:30;;;;;;;;;;;7.50;74.80;;;6.12;59.12;103095.56;5027726;28;19937;-79
2023/02/06 02:08:57;;;;;;;;;;;7.50;74.80;;;6.12;59.07;103100.84;5023628;28;20441;-79
2023/02/06 02:11:29;;;;;;;;;;;7.50;74.70;;;6.07;58.88;103097.72;5009511;28;19929;-79
2023/02/06 02:13:56;;;;;;;;;;;7.50;74.70;;;6.06;59.21;103100.50;5030303;28;19925;-79
2023/02/06 02:16:37;;;;;;;;;;;7.40;74.60;;;6.04;59.07;103087.34;5000521;28;19931;-79
2023/02/06 02:19:29;;;;;;;;;;;7.40;74.50;;;6.00;58.84;103085.03;5011174;28;19968;-79
2023/02/06 02:22:37;;;;;;;;;;;7.40;74.60;;;5.99;59.01;103078.91;5013644;28;19925;-79
2023/02/06 02:25:53;;;;;;;;;;;7.40;74.70;;;5.96;58.88;103078.31;5009494;28;19929;-79
2023/02/06 02:28:38;;;;;;;;;;;7.40;74.50;;;5.96;58.69;103079.16;5019304;28;20357;-79
2023/02/06 02:31:22;;;;;;;;;;;7.40;74.50;;;5.95;58.86;103066.84;5013592;28;19936;-79
2023/02/06 02:34:10;;;;;;;;;;;7.40;74.50;;;5.90;58.75;103076.91;5024083;28;20029;-79
2023/02/06 02:36:42;;;;;;;;;;;7.30;74.50;;;5.89;58.90;103075.22;5024601;28;19935;-79
2023/02/06 02:39:17;;;;;;;;;;;7.30;74.60;;;5.91;59.06;103078.63;4994885;28;20568;-79
2023/02/06 02:41:48;;;;;;;;;;;7.30;74.60;;;5.89;58.63;103084.03;5009445;28;19929;-79
2023/02/06 02:44:21;;;;;;;;;;;7.30;74.40;;;5.83;58.76;103086.28;4999576;28;20422;-79
2023/02/06 02:46:51;;;;;;;;;;;7.30;74.30;;;5.80;58.80;103083.88;5009143;28;19929;-79
2023/02/06 02:49:22;;;;;;;;;;;7.20;74.30;;;5.80;58.91;103079.41;5022027;28;19929;-79
2023/02/06 02:51:51;;;;;;;;;;;7.20;74.30;;;5.77;58.73;103084.13;5012444;28;19929;-79
2023/02/06 02:54:18;;;;;;;;;;;7.20;74.30;;;5.79;58.74;103082.19;5000737;28;19936;-79
2023/02/06 02:56:46;;;;;;;;;;;7.20;74.30;;;5.79;58.59;103088.31;5010237;28;20726;-80
2023/02/06 02:59:18;;;;;;;;;;;7.10;74.20;;;5.76;58.72;103080.63;4999981;28;20124;-80
2023/02/06 03:01:49;;;;;;;;;;;7.10;74.50;;;5.78;58.44;103086.63;5021616;28;19929;-81
2023/02/06 03:04:21;;;;;;;;;;;7.20;74.40;;;5.77;58.59;103077.00;5025126;28;19936;-80
2023/02/06 03:07:13;;;;;;;;;;;7.20;74.60;;;5.77;58.96;103077.00;5011516;28;19929;-81
2023/02/06 03:09:53;;;;;;;;;;;7.20;74.60;;;5.79;58.73;103071.59;5008303;28;19925;-81
2023/02/06 03:12:25;;;;;;;;;;;7.10;74.60;;;5.72;58.68;103073.88;5005841;28;19956;-80
2023/02/06 03:14:56;;;;;;;;;;;7.10;74.70;;;5.69;59.08;103085.53;4995682;28;20484;-80
2023/02/06 03:17:30;;;;;;;;;;;7.10;74.80;;;5.71;59.27;103085.44;5027294;28;19940;-81
2023/02/06 03:19:59;;;;;;;;;;;7.10;74.70;;;5.70;58.94;103078.41;5007648;28;19929;-81
2023/02/06 03:22:28;;;;;;;;;;;7.10;74.50;;;5.71;58.84;103079.25;4997472;28;19926;-81
2023/02/06 03:24:55;;;;;;;;;;;7.10;74.40;;;5.67;58.43;103071.56;5012018;28;19964;-81
2023/02/06 03:27:22;;;;;;;;;;;7.10;74.40;;;5.67;58.71;103068.06;5027198;28;19929;-81
2023/02/06 03:29:51;;;;;;;;;;;7.00;74.20;;;5.64;58.52;103071.78;5025834;28;19929;-81
2023/02/06 03:32:22;;;;;;;;;;;7.00;74.20;;;5.61;58.60;103069.38;5018194;28;19965;-80
2023/02/06 03:34:55;;;;;;;;;;;7.00;74.20;;;5.57;58.50;103078.50;5028923;28;19925;-81
2023/02/06 03:37:24;;;;;;;;;;;7.00;74.20;;;5.57;58.56;103070.56;5020234;28;19972;-81
2023/02/06 03:39:53;;;;;;;;;;;7.00;74.10;;;5.57;58.19;103067.06;5029254;28;19929;-81
2023/02/06 03:42:21;;;;;;;;;;;7.00;73.90;;;5.55;58.13;103084.84;5029116;28;19932;-81
2023/02/06 03:44:51;;;;;;;;;;;7.00;73.70;;;5.52;58.09;103070.06;5020132;28;19929;-80
2023/02/06 03:47:18;;;;;;;;;;;7.00;73.50;;;5.49;58.13;103080.88;5028929;28;19929;-81
2023/02/06 03:49:46;;;;;;;;;;;6.90;73.50;;;5.47;57.98;103080.16;5027518;28;19929;-81
2023/02/06 03:52:16;;;;;;;;;;;6.90;73.50;;;5.47;57.65;103072.22;5025273;28;19929;-80
2023/02/06 03:54:48;;;;;;;;;;;6.90;73.30;;;5.49;57.85;103074.72;5026077;28;19933;-80
2023/02/06 03:57:18;;;;;;;;;;;6.90;73.30;;;5.43;57.70;103076.03;5025635;28;20028;-81
2023/02/06 03:59:45;;;;;;;;;;;6.90;73.30;;;5.40;57.45;103071.78;5026422;28;19971;-81
2023/02/06 04:02:12;;;;;;;;;;;6.80;73.10;;;5.36;57.55;103080.06;5008502;28;19929;-80
2023/02/06 04:04:41;;;;;;;;;;;6.80;73.10;;;5.36;57.86;103080.06;5015768;28;19936;-80
2023/02/06 04:07:13;;;;;;;;;;;6.80;73.50;;;5.37;57.95;103077.34;5009310;28;19929;-81
2023/02/06 04:09:40;;;;;;;;;;;6.80;73.30;;;5.37;57.60;103089.72;5008452;28;20722;-81
2023/02/06 04:12:07;;;;;;;;;;;6.80;73.30;;;5.36;57.91;103085.38;5028540;28;19943;-80
2023/02/06 04:14:36;;;;;;;;;;;6.80;73.30;;;5.37;57.83;103073.84;5019512;28;19933;-80
2023/02/06 04:17:03;;;;;;;;;;;6.80;73.30;;;5.37;57.74;103072.03;5028699;28;20003;-80
2023/02/06 04:19:31;;;;;;;;;;;6.80;73.30;;;5.35;57.65;103079.22;5014709;28;19930;-81
2023/02/06 04:21:58;;;;;;;;;;;6.80;73.20;;;5.34;57.42;103076.72;5033484;28;19925;-81
2023/02/06 04:24:25;;;;;;;;;;;6.70;73.10;;;5.37;57.54;103081.78;5013217;28;19925;-81
2023/02/06 04:26:52;;;;;;;;;;;6.70;73.10;;;5.38;57.59;103072.88;5031388;28;19935;-81
2023/02/06 04:29:19;;;;;;;;;;;6.70;73.10;;;5.34;57.40;103079.34;5016383;28;19929;-81
2023/02/06 04:31:47;;;;;;;;;;;6.70;73.00;;;5.31;57.39;103079.56;5027839;28;19936;-80
2023/02/06 04:34:14;;;;;;;;;;;6.70;73.10;;;5.32;57.43;103090.06;5022527;28;19933;-81
2023/02/06 04:36:41;;;;;;;;;;;6.70;73.10;;;5.28;57.53;103091.22;5040552;22;19960;-76
2023/02/06 04:39:09;;;;;;;;;;;6.70;73.00;;;5.25;57.24;103095.88;5027539;28;19925;-76
2023/02/06 04:41:36;;;;;;;;;;;6.70;73.10;;;5.25;57.33;103101.19;5041557;28;20317;-77
2023/02/06 04:44:03;;;;;;;;;;;6.60;73.00;;;5.25;57.50;103101.19;5020937;28;20418;-77
2023/02/06 04:46:30;;;;;;;;;;;6.60;73.10;;;5.28;57.33;103099.16;5029340;28;19929;-77
2023/02/06 04:48:58;;;;;;;;;;;6.70;73.10;;;5.24;57.27;103100.34;5012985;28;19929;-77
2023/02/06 04:51:25;;;;;;;;;;;6.60;72.80;;;5.20;57.55;103105.97;5009236;28;19940;-77
2023/02/06 04:53:52;;;;;;;;;;;6.60;72.90;;;5.21;57.11;103103.19;5010182;28;19955;-77
2023/02/06 04:56:19;;;;;;;;;;;6.60;72.90;;;5.19;57.24;103106.94;5019143;28;19930;-77
2023/02/06 04:58:46;;;;;;;;;;;6.60;72.80;;;5.17;57.66;103107.00;5017525;28;20035;-77
2023/02/06 05:01:15;;;;;;;;;;;6.60;72.70;;;5.18;57.38;103113.19;5007499;28;19933;-77
2023/02/06 05:03:42;;;;;;;;;;;6.60;72.90;;;5.21;57.30;103107.66;5011822;28;20504;-77
2023/02/06 05:06:10;;;;;;;;;;;6.60;72.80;;;5.20;57.09;103104.16;5010885;28;20416;-77
2023/02/06 05:08:37;;;;;;;;;;;6.60;72.70;;;5.15;57.66;103116.88;5019392;28;20459;-77
2023/02/06 05:11:05;;;;;;;;;;;6.60;72.80;;;5.14;57.72;103118.69;5012861;28;20294;-77
2023/02/06 05:13:32;;;;;;;;;;;6.60;73.10;;;5.14;57.29;103113.38;5013641;28;19935;-77
2023/02/06 05:16:08;;;;;;;;;;;6.60;73.10;;;5.15;57.37;103104.50;5019705;28;19929;-77
2023/02/06 05:18:35;;;;;;;;;;;6.60;73.10;;;5.13;57.64;103097.63;5022131;28;20033;-78
2023/02/06 05:21:03;;;;;;;;;;;6.50;73.20;;;5.13;57.88;103092.34;5018507;28;19936;-79
2023/02/06 05:23:32;;;;;;;;;;;6.50;73.30;;;5.12;57.98;103104.72;5017093;28;19930;-78
2023/02/06 05:25:59;;;;;;;;;;;6.50;73.50;;;5.15;57.97;103095.72;5011524;28;19929;-79
2023/02/06 05:28:28;;;;;;;;;;;6.50;73.50;;;5.12;58.00;103086.22;5008531;28;19931;-79
2023/02/06 05:30:55;;;;;;;;;;;6.50;73.70;;;5.11;58.01;103086.31;5005108;28;19933;-78
2023/02/06 05:33:22;;;;;;;;;;;6.50;73.70;;;5.10;58.30;103072.25;5018897;28;20414;-79
2023/02/06 05:35:49;;;;;;;;;;;6.50;73.70;;;5.10;58.25;103074.03;5014641;28;19953;-79
2023/02/06 05:38:16;;;;;;;;;;;6.50;73.70;;;5.08;57.92;103075.97;5016317;28;19933;-78
2023/02/06 05:40:45;;;;;;;;;;;6.50;73.90;;;5.06;58.33;103069.94;5009401;28;19935;-78
2023/02/06 05:43:12;;;;;;;;;;;6.50;74.10;;;5.04;58.49;103077.97;5010083;28;19929;-78
2023/02/06 05:45:39;;;;;;;;;;;6.50;74.30;;;5.06;58.99;103072.56;5008752;28;19925;-79
2023/02/06 05:48:05;;;;;;;;;;;6.40;74.30;;;5.05;58.75;103077.00;5011154;28;19933;-79
2023/02/06 05:50:32;;;;;;;;;;;6.40;74.20;;;5.06;58.97;103078.69;5007615;28;20092;-78
2023/02/06 05:52:59;;;;;;;;;;;6.50;74.50;;;5.05;58.46;103071.72;5010560;28;20511;-78
2023/02/06 05:55:26;;;;;;;;;;;6.40;74.30;;;5.04;58.39;103072.69;5006997;28;19933;-78
2023/02/06 05:57:57;;;;;;;;;;;6.50;74.30;;;4.99;58.79;103074.81;5005459;28;19937;-78
2023/02/06 06:00:24;;;;;;;;;;;6.40;74.30;;;4.97;58.63;103079.34;5009127;28;20316;-78
2023/02/06 06:02:51;;;;;;;;;;;6.40;74.50;;;5.00;59.00;103073.84;5010568;28;19952;-78
2023/02/06 06:05:20;;;;;;;;;;;6.40;74.70;;;5.01;59.42;103086.13;5008456;28;19955;-78
2023/02/06 06:07:47;;;;;;;;;;;6.40;75.00;;;5.06;58.96;103078.69;5007911;28;20028;-78
2023/02/06 06:10:14;;;;;;;;;;;6.40;75.00;;;5.06;59.56;103064.63;5006555;28;19944;-78
2023/02/06 06:12:41;;;;;;;;;;;6.40;75.20;;;5.08;59.50;103062.75;5012425;28;19935;-78
2023/02/06 06:15:10;;;;;;;;;;;6.40;75.30;;;5.10;59.74;103074.03;5020879;28;20386;-78
2023/02/06 06:17:37;;;;;;;;;;;6.40;75.60;;;5.10;59.93;103066.94;5011071;28;19933;-78
2023/02/06 06:20:04;;;;;;;;;;;6.50;75.90;;;5.09;60.32;103073.19;5017187;28;19929;-78
2023/02/06 06:22:31;;;;;;;;;;;6.50;76.00;;;5.12;60.43;103066.81;5005568;28;19937;-78
2023/02/06 06:24:58;;;;;;;;;;;6.50;76.20;;;5.13;60.27;103068.53;5004880;28;19929;-78
2023/02/06 06:27:25;;;;;;;;;;;6.50;76.20;;;5.11;60.55;103068.63;5008543;28;20901;-78
2023/02/06 06:29:52;;;;;;;;;;;6.50;76.40;;;5.12;60.55;103067.69;5011988;28;19934;-79
2023/02/06 06:32:20;;;;;;;;;;;6.50;76.60;;;5.11;60.85;103065.16;5009730;28;20376;-78
2023/02/06 06:34:47;;;;;;;;;;;6.50;76.80;;;5.10;61.24;103066.09;5010781;28;19929;-78
2023/02/06 06:37:14;;;;;;;;;;;6.50;77.00;;;5.11;61.69;103070.44;5009964;28;19936;-77
2023/02/06 06:39:41;;;;;;;;;;;6.50;77.40;;;5.18;61.25;103065.56;5007333;28;19929;-77
2023/02/06 06:42:08;;;;;;;;;;;6.50;77.40;;;5.21;61.63;103065.31;5013246;28;19929;-78
2023/02/06 06:44:35;;;;;;;;;;;6.50;77.60;;;5.24;61.73;103055.38;5022481;28;19930;-78
2023/02/06 06:47:03;;;;;;;;;;;6.60;77.70;;;5.25;61.70;103046.47;5010220;28;19936;-77
2023/02/06 06:49:32;;;;;;;;;;;6.60;77.70;;;5.26;61.57;103047.31;5009846;28;19926;-78
2023/02/06 06:51:59;;;;;;;;;;;6.60;77.80;;;5.23;61.85;103060.78;5009321;28;19975;-77
2023/02/06 06:54:26;;;;;;;;;;;6.60;78.00;;;5.24;62.30;103050.06;5019845;28;20003;-77
2023/02/06 06:56:53;;;;;;;;;;;6.60;78.20;;;5.23;62.35;103058.13;5009628;28;20406;-77
2023/02/06 06:59:20;;;;;;;;;;;6.50;78.30;;;5.23;62.34;103064.28;5011010;28;19926;-77
2023/02/06 07:01:51;;;;;;;;;;;6.60;78.40;;;5.22;62.53;103054.66;5013160;28;19930;-77
2023/02/06 07:04:18;;;;;;;;;;;6.60;78.50;;;5.26;62.62;103058.72;5018442;28;19951;-77
2023/02/06 07:06:46;;;;;;;;;;;6.60;78.60;;;5.28;62.60;103056.00;5007845;28;19932;-78
2023/02/06 07:09:13;;;;;;;;;;;6.60;78.60;;;5.30;62.52;103060.19;5005740;28;19937;-78
2023/02/06 07:11:40;;;;;;;;;;;6.60;78.60;;;5.28;62.46;103061.28;5004218;28;19933;-79
2023/02/06 07:14:07;;;;;;;;;;;6.60;78.60;;;5.28;62.68;103061.28;5008975;28;19952;-78
2023/02/06 07:16:34;;;;;;;;;;;6.60;78.80;;;5.29;62.56;103055.03;5000662;28;19936;-78
2023/02/06 07:19:01;;;;;;;;;;;6.60;78.80;;;5.30;62.87;103059.34;5007207;28;19933;-78
2023/02/06 07:21:28;;;;;;;;;;;6.60;78.90;;;5.29;63.04;103057.69;5004112;28;19929;-79
2023/02/06 07:23:56;;;;;;;;;;;6.60;79.00;;;5.31;62.65;103061.03;5000421;28;19925;-78
2023/02/06 07:26:23;;;;;;;;;;;6.60;79.00;;;5.33;62.71;103059.16;4991461;28;20409;-77
2023/02/06 07:28:51;;;;;;;;;;;6.60;79.00;;;5.31;63.28;103055.75;5004650;28;19934;-78
2023/02/06 07:31:18;;;;;;;;;;;6.60;79.20;;;5.33;63.36;103069.72;5006604;28;19975;-77
2023/02/06 07:33:45;;;;;;;;;;;6.60;79.20;;;5.34;62.98;103053.72;5004518;28;20452;-81
2023/02/06 07:36:12;;;;;;;;;;;6.60;79.30;;;5.36;63.08;103059.75;5007403;28;19930;-78
2023/02/06 07:38:39;;;;;;;;;;;6.60;79.40;;;5.36;63.27;103053.59;5009426;28;19929;-78
2023/02/06 07:41:08;;;;;;;;;;;6.70;79.60;;;5.39;63.48;103059.53;5008571;28;20389;-78
2023/02/06 07:43:35;;;;;;;;;;;6.70;79.80;;;5.40;63.54;103057.72;5010029;28;21523;-79
2023/02/06 07:46:04;;;;;;;;;;;6.70;79.70;;;5.31;63.57;103064.53;5004388;28;19930;-79
2023/02/06 07:48:32;;;;;;;;;;;6.60;79.80;;;5.31;63.57;103055.75;5005723;28;19957;-79
2023/02/06 07:51:04;;;;;;;;;;;6.60;79.90;;;5.31;63.89;103055.75;5008441;28;20024;-78
2023/02/06 07:53:31;;;;;;;;;;;6.60;80.00;;;5.32;63.97;103058.31;5009010;28;20408;-78
2023/02/06 07:55:58;;;;;;;;;;;6.60;80.00;;;5.36;63.67;103053.59;5008272;28;19932;-78
2023/02/06 07:58:26;;;;;;;;;;;6.60;80.00;;;5.34;64.08;103058.19;5009712;28;19929;-78
2023/02/06 08:00:53;;;;;;;;;;;6.60;80.10;;;5.34;64.34;103058.19;5006217;28;19930;-78
2023/02/06 08:03:20;;;;;;;;;;;6.70;80.20;;;5.36;63.91;103053.59;5008331;28;19933;-78
2023/02/06 08:05:47;;;;;;;;;;;6.70;80.40;;;5.35;64.40;103055.41;5005702;28;19929;-78
2023/02/06 08:08:14;;;;;;;;;;;6.70;80.40;;;5.36;64.55;103058.91;5008968;28;19968;-79
2023/02/06 08:10:41;;;;;;;;;;;6.70;80.60;;;5.40;64.45;103060.38;5003332;28;19926;-81
2023/02/06 08:13:08;;;;;;;;;;;6.70;80.80;;;5.43;64.33;103054.88;5008085;28;19930;-78
2023/02/06 08:15:36;;;;;;;;;;;6.70;80.70;;;5.43;64.15;103054.88;5009064;28;19936;-79
2023/02/06 08:18:04;;;;;;;;;;;6.70;80.70;;;5.41;64.22;103052.31;5008379;28;20028;-78
2023/02/06 08:20:31;;;;;;;;;;;6.70;80.60;;;5.39;64.68;103048.94;5006914;28;19972;-79
2023/02/06 08:22:58;;;;;;;;;;;6.70;80.80;;;5.40;64.38;103057.72;5008092;28;19957;-78
2023/02/06 08:25:25;;;;;;;;;;;6.70;80.80;;;5.40;64.65;103069.16;5003010;28;19930;-76
2023/02/06 08:27:53;;;;;;;;;;;6.70;81.10;;;5.41;64.66;103070.84;5007052;28;19934;-77
2023/02/06 08:30:20;;;;;;;;;;;6.70;81.10;;;5.43;65.23;103061.00;5007225;28;21517;-78
2023/02/06 08:32:48;;;;;;;;;;;6.70;81.30;;;5.42;65.37;103050.53;5000890;28;19933;-76
2023/02/06 08:35:15;;;;;;;;;;;6.60;81.50;;;5.40;65.48;103040.03;5004139;28;19929;-76
2023/02/06 08:37:42;;;;;;;;;;;6.60;81.60;;;5.44;65.24;103048.59;5003318;28;19959;-76
2023/02/06 08:40:10;;;;;;;;;;;6.70;81.80;;;5.43;65.49;103052.22;5005172;28;20588;-76
2023/02/06 08:42:37;;;;;;;;;;;6.70;81.90;;;5.41;65.74;103046.16;5002366;28;20048;-76
2023/02/06 08:45:06;;;;;;;;;;;6.60;81.80;;;5.39;65.72;103053.41;5009361;28;19937;-76
2023/02/06 08:47:33;;;;;;;;;;;6.70;82.20;;;5.45;65.98;103049.44;5008588;28;19929;-77
2023/02/06 08:50:01;;;;;;;;;;;6.70;82.30;;;5.49;65.50;103048.25;5008603;28;19929;-77
2023/02/06 08:52:28;;;;;;;;;;;6.70;82.30;;;5.50;65.88;103049.94;5009743;28;19929;-77
2023/02/06 08:54:55;;;;;;;;;;;6.70;82.20;;;5.53;65.91;103047.09;5016412;28;19941;-77
2023/02/06 08:57:22;;;;;;;;;;;6.70;82.50;;;5.54;66.15;103052.25;5002107;28;19930;-77
2023/02/06 08:59:49;;;;;;;;;;;6.90;82.50;;;5.54;65.75;103057.53;5003515;28;19933;-77
2023/02/06 09:02:16;;;;;;;;;;;6.70;82.60;;;5.56;65.92;103054.78;5006444;28;19956;-77
2023/02/06 09:04:43;;;;;;;;;;;6.80;82.70;;;5.59;66.27;103059.84;5007570;28;19929;-78
2023/02/06 09:07:11;;;;;;;;;;;6.80;82.70;;;5.55;66.45;103064.53;5006674;28;19948;-77
2023/02/06 09:09:38;;;;;;;;;;;6.70;82.80;;;5.55;66.59;103058.38;5012200;28;19936;-76
2023/02/06 09:12:06;;;;;;;;;;;6.80;82.90;;;5.57;66.01;103059.13;5013603;28;19936;-77
2023/02/06 09:14:34;;;;;;;;;;;6.80;82.70;;;5.54;66.46;103056.72;5009805;28;19930;-77
2023/02/06 09:17:01;;;;;;;;;;;6.80;82.70;;;5.53;66.66;103050.56;5006945;28;19936;-77
2023/02/06 09:19:28;;;;;;;;;;;6.80;82.90;;;5.54;66.42;103062.00;5007303;28;19934;-77
2023/02/06 09:21:55;;;;;;;;;;;6.80;82.90;;;5.55;66.63;103064.53;5012885;28;20437;-77
2023/02/06 09:24:24;;;;;;;;;;;6.80;83.10;;;5.57;66.48;103065.28;5009166;28;20301;-77
2023/02/06 09:26:51;;;;;;;;;;;6.80;83.20;;;5.58;67.09;103061.66;5009353;28;19979;-77
2023/02/06 09:29:18;;;;;;;;;;;6.80;83.40;;;5.56;67.06;103065.38;5009762;28;19941;-77
2023/02/06 09:31:46;;;;;;;;;;;6.70;83.50;;;5.57;66.79;103069.72;5008947;28;19929;-77
2023/02/06 09:34:13;;;;;;;;;;;6.80;83.50;;;5.57;66.97;103077.66;5009432;28;19933;-77
2023/02/06 09:36:40;;;;;;;;;;;6.70;83.50;;;5.59;66.65;103079.22;5011460;28;19936;-77
2023/02/06 09:39:08;;;;;;;;;;;6.70;83.30;;;5.59;67.03;103083.69;5008124;28;20310;-78
2023/02/06 09:41:40;;;;;;;;;;;6.70;83.50;;;5.56;67.24;103076.81;5014098;28;19926;-77
2023/02/06 09:44:13;;;;;;;;;;;6.70;83.70;;;5.57;66.91;103081.16;5010427;28;19931;-77
2023/02/06 09:46:45;;;;;;;;;;;6.70;83.70;;;5.58;67.13;103084.63;5006785;28;19930;-77
2023/02/06 09:49:15;;;;;;;;;;;6.70;83.90;;;5.61;66.72;103087.91;5005666;28;19932;-77
2023/02/06 09:52:00;;;;;;;;;;;6.70;83.90;;;5.53;67.20;103082.34;5016705;28;19932;-78
2023/02/06 09:54:31;;;;;;;;;;;6.70;84.00;;;5.56;67.21;103083.88;5005388;28;19926;-78
2023/02/06 09:57:03;;;;;;;;;;;6.70;84.20;;;5.51;67.32;103086.03;5009769;28;19933;-78
2023/02/06 09:59:33;;;;;;;;;;;6.60;84.30;;;5.50;67.46;103082.53;5011915;28;20019;-77
2023/02/06 10:02:23;;;;;;;;;;;6.70;84.40;;;5.53;67.73;103084.13;5013165;28;20325;-77
2023/02/06 10:04:56;;;;;;;;;;;6.70;84.50;;;5.48;67.96;103092.41;5017632;28;19932;-77
2023/02/06 10:07:32;;;;;;;;;;;6.70;84.70;;;5.51;68.10;103093.97;5010340;28;20051;-77
2023/02/06 10:10:02;;;;;;;;;;;6.70;84.90;;;5.51;68.47;103086.03;5005018;28;19929;-78
2023/02/06 10:12:35;;;;;;;;;;;6.70;84.80;;;5.49;68.93;103086.16;5014396;28;19936;-77
2023/02/06 10:15:07;;;;;;;;;;;6.70;85.10;;;5.56;68.45;103087.41;5010675;28;20382;-77
2023/02/06 10:17:36;;;;;;;;;;;6.80;85.10;;;5.65;68.62;103086.69;5011563;28;20049;-77
2023/02/06 10:20:06;;;;;;;;;;;6.90;85.30;;;5.66;68.65;103066.38;5021863;28;19925;-77
2023/02/06 10:22:40;;;;;;;;;;;6.80;85.20;;;5.59;69.13;103073.09;5018180;28;19925;-77
2023/02/06 10:25:23;;;;;;;;;;;6.80;85.30;;;5.55;69.21;103075.09;5011278;28;19964;-77
2023/02/06 10:27:56;;;;;;;;;;;6.80;85.30;;;5.49;70.11;103072.94;5025755;28;19929;-78
2023/02/06 10:30:32;;;;;;;;;;;6.80;85.80;;;5.57;69.98;103065.28;5020138;28;19930;-77
2023/02/06 10:33:03;;;;;;;;;;;6.80;85.90;;;5.65;69.57;103070.81;5005987;28;20428;-77
2023/02/06 10:35:38;;;;;;;;;;;6.80;85.90;;;5.58;69.83;103068.75;5003808;28;19930;-77
2023/02/06 10:38:37;;;;;;;;;;;6.80;86.00;;;5.60;69.62;103067.66;5037687;22;19925;-78
2023/02/06 10:41:08;;;;;;;;;;;6.80;86.00;;;5.64;69.61;103069.13;5038564;28;19928;-78
2023/02/06 10:43:43;;;;;;;;;;;6.80;86.00;;;5.71;69.68;103063.38;5044762;28;20294;-78
2023/02/06 10:46:31;;;;;;;;;;;6.80;86.20;;;5.71;70.06;103052.78;5047952;28;19929;-79
2023/02/06 10:49:02;;;;;;;;;;;6.90;86.20;;;5.72;69.92;103052.69;5050371;28;19936;-78
2023/02/06 10:51:31;;;;;;;;;;;6.90;86.10;;;5.72;69.84;103054.50;5044218;28;19935;-78
2023/02/06 10:54:01;;;;;;;;;;;6.90;85.90;;;5.77;69.54;103049.69;5041092;28;19928;-78
2023/02/06 10:56:30;;;;;;;;;;;6.90;86.00;;;5.81;69.47;103049.34;5045235;28;19924;-78
2023/02/06 10:59:00;;;;;;;;;;;6.90;85.90;;;5.85;69.54;103037.53;5044350;28;19932;-78
2023/02/06 11:01:30;;;;;;;;;;;7.00;85.90;;;5.85;69.50;103050.78;5044699;28;19968;-80
2023/02/06 11:04:03;;;;;;;;;;;7.00;85.80;;;5.87;69.37;103043.56;5032265;28;19939;-79
2023/02/06 11:06:30;;;;;;;;;;;7.00;85.90;;;5.88;69.71;103034.66;5049185;28;20435;-79
2023/02/06 11:08:57;;;;;;;;;;;7.00;85.80;;;5.91;69.61;103033.59;5031587;28;19944;-79
2023/02/06 11:11:26;;;;;;;;;;;7.00;86.00;;;5.96;69.56;103030.63;5047886;28;19939;-80
2023/02/06 11:13:55;;;;;;;;;;;7.10;85.90;;;5.99;69.71;103036.53;5050036;28;19929;-79
2023/02/06 11:16:26;;;;;;;;;;;7.10;86.10;;;6.01;69.67;103034.63;5049317;28;19928;-80
2023/02/06 11:18:55;;;;;;;;;;;7.10;86.10;;;6.03;69.18;103031.84;5045778;28;19932;-81
2023/02/06 11:21:49;;;;;;;;;;;7.10;85.90;;;6.03;69.05;103021.25;5047120;28;19935;-77
2023/02/06 11:24:19;;;;;;;;;;;7.10;86.10;;;6.03;69.54;103021.25;5044329;28;19929;-77
2023/02/06 11:26:48;;;;;;;;;;;7.10;86.30;;;6.04;69.84;103023.75;5049789;28;19928;-77
2023/02/06 11:29:17;;;;;;;;;;;7.10;86.50;;;6.06;69.93;103016.56;5042210;28;19933;-76
2023/02/06 11:31:48;;;;;;;;;;;7.10;86.70;;;6.08;70.07;103009.31;5042171;28;20029;-77
2023/02/06 11:34:22;;;;;;;;;;;7.10;86.60;;;6.11;70.16;103009.09;5047444;28;19929;-77